Mcbride, Canada
Current Conditions -  °F | °C
As of 7:00 AM on Thursday 23 Oct 2014 (Local Time) from CYQZ Reporting Station
Overcast Overcast  
Wind Chill: 40°   Ceiling: 3300
Heat Index: 43°   Visibility: 9mi
Dew Point: 43°   Wind: 5mph
Humidity: 100%   Direction: 140°SE
Pressure: 29.55"   Gusts: NA
Location:  53.3°N, 120.17°W
Report Text: CYQZ 231400Z AUTO 14004KT 9SM OVC033 06/06 A2955 RMK SLP018
Loading
Personal Weather Stations






























Interactive Weather Map New forecast layout! Learn more

10-Day Weather Forecast

Advertisements
Track Severe Weather on mobile